Ana Sayfa
METAR-TAF:

METAR-TAF

Havaalanları :

Fukuoka Havalimanı

Fukuoka, Japonya

Enlem: 33-35N, Boylam: 130-27E, yükseklik: 9 m

Güncel hava durumu gözlemi

Rapor saat 06:30 UTC de 48 dakika önce yapıldı.
Rüzgar kuzey/kuzeybatıdan 13 kt
Sıcaklık 8°C
Nem 53%
Basınç 1017 hPa
Görüş mesafesi 10 km veya daha fazla
2500 ft yükseklikte az bulutlu
3500 ft yükseklikte parçalı çok bulutlu

METAR: RJFF 010630Z 34013KT 9999 FEW025 BKN035 08/M01 Q1017 NOSIG RMK 1CU025 7CU035 A3005

Saat: 16:18 (07:18 UTC)

Tahmin

Rapor saat 05:05 UTC de 2 saat ve 13 dakika önce yapıldı.
Ayın 01'si saat 06 UTC'den ayın 02'si saat 12 UTC'ye kadar geçerli Tahmin
Rüzgar kuzeybatıdan 13 kt
Görüş mesafesi 10 km veya daha fazla
2500 ft yükseklikte az bulutlu
4000 ft yükseklikte parçalı çok bulutlu
Dönüşüyor
ayın 02'si saat 09 UTC'den ayın 02'si saat 12 UTC'ye kadar
Rüzgar güneydan 11 kt

TAF: RJFF 010505Z 0106/0212 31013KT 9999 FEW025 BKN040 BECMG 0209/0212 17011KT

4.000'den fazla havaalanı için hava durumu gözlemleri ve tahminleri (METAR ve TAF raporları).

Kullanılabilir istasyonlar harita üzerinde sarı ve kırmızı noktalarla gösterilir.

İstasyonun adını görmek için fareyi noktanın üzerinde gezdirin.

Sonrasında hava gözlem ve tahminlerini görmek için tıklayın.

Haritayı değiştirmek için: yaklaştırmak için siyah artı işaretli yeşil düğmeye ve uzaklaştırmak için de eksi işaretli düğmeye hızla tıklayın; bitişik haritalar için yeşil okları kullanın.


METAR-TAF: